Time;durP1;ratioP1;P1;durP2;ratioP2;P2;SDS_P1;SDS_P2;PMS_P1;PMS_P2;Temp;Humidity;BMP_temperature;BMP_pressure;BME280_temperature;BME280_humidity;BME280_pressure;Samples;Min_cycle;Max_cycle;Signal;HPM_P1;HPM_P2
2022/05/18 00:00:15;;;;;;;12.70;4.47;;;;;;;17.07;68.06;101673.19;4960310;28;20038;-84
2022/05/18 00:02:41;;;;;;;12.25;4.20;;;;;;;17.07;69.23;101670.44;4976122;28;20030;-84
2022/05/18 00:05:07;;;;;;;11.17;3.87;;;;;;;17.10;69.08;101675.44;4993739;28;20395;-84
2022/05/18 00:07:33;;;;;;;14.63;4.13;;;;;;;17.07;70.42;101679.50;4960442;28;20053;-84
2022/05/18 00:09:58;;;;;;;14.55;4.28;;;;;;;17.08;70.76;101678.44;4976297;28;20038;-84
2022/05/18 00:12:24;;;;;;;12.63;4.37;;;;;;;17.04;70.42;101679.13;4993602;28;20098;-84
2022/05/18 00:14:50;;;;;;;12.55;4.07;;;;;;;17.01;70.60;101684.00;4993555;28;20026;-84
2022/05/18 00:17:16;;;;;;;12.37;4.00;;;;;;;17.01;71.74;101675.78;4993466;28;20026;-83
2022/05/18 00:19:41;;;;;;;16.13;4.20;;;;;;;16.95;69.96;101689.63;4993529;28;20035;-84
2022/05/18 00:22:07;;;;;;;11.63;3.90;;;;;;;16.93;70.19;101684.38;4996612;28;20030;-83
2022/05/18 00:24:32;;;;;;;16.33;4.40;;;;;;;16.88;69.51;101684.25;4979335;28;20045;-84
2022/05/18 00:26:58;;;;;;;14.30;4.57;;;;;;;16.87;69.24;101685.31;4997886;28;20061;-84
2022/05/18 00:29:23;;;;;;;9.47;4.50;;;;;;;16.86;69.45;101693.75;4982749;28;20034;-84
2022/05/18 00:31:49;;;;;;;16.43;5.07;;;;;;;16.77;69.05;101693.25;4998829;28;20496;-84
2022/05/18 00:34:18;;;;;;;13.45;4.88;;;;;;;16.76;69.89;101688.88;4999013;28;20397;-84
2022/05/18 00:36:43;;;;;;;13.57;4.57;;;;;;;16.71;70.42;101685.97;4967419;28;20044;-84
2022/05/18 00:39:09;;;;;;;12.60;4.90;;;;;;;16.63;70.09;101671.56;4982698;28;20148;-84
2022/05/18 00:41:35;;;;;;;8.77;4.17;;;;;;;16.60;70.30;101680.25;4982392;28;20030;-84
2022/05/18 00:44:05;;;;;;;15.05;4.65;;;;;;;16.57;70.30;101688.94;4998072;28;20040;-85
2022/05/18 00:46:31;;;;;;;12.80;4.50;;;;;;;16.59;70.13;101691.44;5016779;28;20038;-85
2022/05/18 00:49:03;;;;;;;9.98;4.15;;;;;;;16.54;70.63;101681.19;4998302;28;20034;-84
2022/05/18 00:51:34;;;;;;;9.10;4.38;;;;;;;16.51;71.15;101687.16;4998375;28;20026;-85
2022/05/18 00:54:10;;;;;;;10.20;4.57;;;;;;;16.45;70.70;101688.91;4998754;28;20032;-84
2022/05/18 00:56:54;;;;;;;17.52;4.20;;;;;;;16.45;71.35;101688.91;5032216;28;20366;-84
2022/05/18 00:59:31;;;;;;;17.95;4.50;;;;;;;16.46;71.83;101687.00;4998635;28;20030;-84
2022/05/18 01:02:01;;;;;;;13.65;4.57;;;;;;;16.44;72.77;101686.41;5016719;28;20409;-84
2022/05/18 01:04:36;;;;;;;16.05;4.80;;;;;;;16.41;72.78;101678.66;4998307;28;20034;-84
2022/05/18 01:07:27;;;;;;;15.20;4.97;;;;;;;16.41;71.88;101684.16;5015834;28;20072;-84
2022/05/18 01:09:53;;;;;;;15.23;4.63;;;;;;;16.44;73.90;101689.16;4989876;28;20041;-84
2022/05/18 01:12:21;;;;;;;13.43;4.70;;;;;;;16.35;71.89;101690.56;4981678;28;20544;-84
2022/05/18 01:15:02;;;;;;;13.53;4.77;;;;;;;16.38;71.93;101687.34;5015589;28;20033;-84
2022/05/18 01:17:32;;;;;;;14.10;5.15;;;;;;;16.34;73.85;101695.19;5016174;28;20355;-85
2022/05/18 01:20:03;;;;;;;14.82;4.63;;;;;;;16.29;74.37;101684.94;4998096;28;20026;-84
2022/05/18 01:22:53;;;;;;;12.30;4.40;;;;;;;16.31;73.70;101693.78;4999298;28;20026;-84
2022/05/18 01:25:53;;;;;;;11.57;4.50;;;;;;;16.32;73.03;101689.13;5015636;28;20049;-84
2022/05/18 01:28:31;;;;;;;11.53;4.63;;;;;;;16.28;74.06;101686.03;4998390;28;20066;-84
2022/05/18 01:31:04;;;;;;;11.60;4.57;;;;;;;16.30;73.57;101683.06;5015772;28;20397;-85
2022/05/18 01:33:33;;;;;;;13.75;4.65;;;;;;;16.23;73.64;101685.03;4998466;28;20034;-84
2022/05/18 01:35:58;;;;;;;13.07;4.40;;;;;;;16.22;73.70;101683.38;4965645;28;20040;-85
2022/05/18 01:38:26;;;;;;;9.93;4.67;;;;;;;16.15;73.75;101686.22;4997457;28;20033;-85
2022/05/18 01:41:29;;;;;;;15.60;4.80;;;;;;;16.20;72.38;101689.06;4981370;28;20041;-84
2022/05/18 01:44:01;;;;;;;10.40;4.45;;;;;;;16.18;73.42;101685.75;4957643;28;20047;-84
2022/05/18 01:46:30;;;;;;;11.20;4.78;;;;;;;16.09;73.91;101677.03;4997412;28;20115;-84
2022/05/18 01:48:58;;;;;;;10.63;4.50;;;;;;;16.08;74.51;101680.00;4997852;28;20038;-84
2022/05/18 01:51:39;;;;;;;10.38;4.50;;;;;;;16.08;74.74;101672.59;4997225;28;20034;-84
2022/05/18 01:54:15;;;;;;;12.45;5.20;;;;;;;16.14;74.84;101681.81;5015706;28;20045;-84
2022/05/18 01:56:41;;;;;;;12.85;5.03;;;;;;;16.13;74.98;101686.41;4997512;28;20037;-84
2022/05/18 01:59:13;;;;;;;9.82;4.70;;;;;;;16.13;75.71;101689.16;4997151;28;20029;-85
2022/05/18 02:01:39;;;;;;;9.30;4.87;;;;;;;16.05;75.87;101677.72;5014746;28;20034;-84
2022/05/18 02:04:08;;;;;;;13.70;5.47;;;;;;;16.10;76.00;101681.41;4997312;28;20057;-84
2022/05/18 02:06:37;;;;;;;12.27;5.35;;;;;;;16.04;77.17;101679.59;4997701;28;20033;-84
2022/05/18 02:09:16;;;;;;;17.65;5.05;;;;;;;16.02;76.31;101680.91;4997406;28;20088;-84
2022/05/18 02:11:42;;;;;;;10.07;5.43;;;;;;;15.99;76.29;101684.09;5015599;28;20048;-84
2022/05/18 02:14:13;;;;;;;11.67;5.00;;;;;;;15.98;76.13;101688.75;5013339;28;20124;-84
2022/05/18 02:16:38;;;;;;;14.23;4.82;;;;;;;15.97;76.16;101673.38;5015100;28;20516;-84
2022/05/18 02:19:13;;;;;;;16.03;5.43;;;;;;;15.99;76.50;101681.38;5014714;28;20030;-84
2022/05/18 02:21:39;;;;;;;10.25;5.10;;;;;;;15.99;76.74;101679.47;5015533;28;20041;-85
2022/05/18 02:24:05;;;;;;;11.57;5.30;;;;;;;16.02;77.21;101681.75;4997019;28;20034;-84
2022/05/18 02:26:30;;;;;;;9.07;5.07;;;;;;;16.02;76.68;101673.53;5014514;28;20080;-85
2022/05/18 02:28:56;;;;;;;13.93;5.17;;;;;;;16.03;76.86;101675.19;4979479;28;20293;-84
2022/05/18 02:31:21;;;;;;;13.97;5.27;;;;;;;16.01;77.22;101677.34;4977079;28;20479;-84
2022/05/18 02:33:47;;;;;;;10.85;5.18;;;;;;;16.01;76.95;101665.56;4994531;28;20038;-84
2022/05/18 02:36:18;;;;;;;12.60;5.47;;;;;;;16.08;77.02;101669.88;4976966;28;20045;-84
2022/05/18 02:38:44;;;;;;;8.47;5.10;;;;;;;16.13;77.59;101680.13;4977578;28;20037;-85
2022/05/18 02:41:11;;;;;;;10.60;5.30;;;;;;;16.14;78.14;101673.59;4994990;28;20031;-84
2022/05/18 02:43:42;;;;;;;11.23;5.28;;;;;;;16.17;78.31;101675.03;4976539;28;20022;-85
2022/05/18 02:46:16;;;;;;;11.10;4.97;;;;;;;16.19;78.13;101681.94;4995011;28;20046;-84
2022/05/18 02:48:51;;;;;;;16.20;5.73;;;;;;;16.18;77.85;101682.16;4977003;28;20034;-84
2022/05/18 02:51:17;;;;;;;12.13;5.45;;;;;;;16.24;78.22;101675.75;4977356;28;20026;-84
2022/05/18 02:53:45;;;;;;;10.48;5.60;;;;;;;16.22;77.45;101666.94;4976795;28;20038;-85
2022/05/18 02:56:21;;;;;;;11.02;5.63;;;;;;;16.26;77.37;101679.94;4976705;28;20054;-84
2022/05/18 02:58:52;;;;;;;12.82;5.93;;;;;;;16.26;77.47;101682.66;4994523;28;20022;-84
2022/05/18 03:01:26;;;;;;;13.13;5.40;;;;;;;16.28;77.25;101690.66;4994244;28;20474;-84
2022/05/18 03:03:53;;;;;;;14.43;6.18;;;;;;;16.22;77.05;101691.59;4976930;28;20034;-84
2022/05/18 03:06:26;;;;;;;11.32;6.07;;;;;;;16.22;77.57;101683.38;4994111;28;20545;-84
2022/05/18 03:08:52;;;;;;;14.38;6.97;;;;;;;16.23;77.49;101691.34;4961397;28;20045;-85
2022/05/18 03:11:19;;;;;;;10.88;6.75;;;;;;;16.25;76.94;101691.13;4976836;28;20034;-85
2022/05/18 03:13:45;;;;;;;13.70;6.80;;;;;;;16.29;76.62;101695.88;4976931;28;20026;-84
2022/05/18 03:16:13;;;;;;;14.02;7.22;;;;;;;16.29;77.48;101698.63;4976832;28;20038;-85
2022/05/18 03:18:38;;;;;;;16.35;7.03;;;;;;;16.30;75.93;101700.31;4960778;28;20038;-84
2022/05/18 03:23:48;;;;;;;9.45;6.80;;;;;;;16.32;76.82;101708.28;4994881;28;20153;-84
2022/05/18 03:26:22;;;;;;;10.47;6.57;;;;;;;16.36;76.71;101711.38;4976985;28;20071;-84
2022/05/18 03:28:54;;;;;;;13.35;7.15;;;;;;;16.34;75.78;101708.06;4976647;28;20053;-85
2022/05/18 03:31:19;;;;;;;13.05;6.68;;;;;;;16.35;75.73;101704.25;4977024;28;20037;-85
2022/05/18 03:33:45;;;;;;;10.57;6.87;;;;;;;16.36;75.91;101706.75;4976564;28;20449;-84
2022/05/18 03:36:18;;;;;;;12.15;7.20;;;;;;;16.35;75.77;101704.25;4994993;28;20366;-84
2022/05/18 03:38:45;;;;;;;14.27;6.90;;;;;;;16.35;75.53;101718.78;4993929;28;20034;-84
2022/05/18 03:41:12;;;;;;;12.05;6.68;;;;;;;16.32;76.17;101711.03;4977112;28;20031;-85
2022/05/18 03:43:43;;;;;;;13.23;7.50;;;;;;;16.39;75.79;101716.41;4976550;28;20034;-86
2022/05/18 03:46:10;;;;;;;14.05;6.97;;;;;;;16.40;75.69;101720.81;4976519;28;20034;-85
2022/05/18 03:48:43;;;;;;;12.07;7.15;;;;;;;16.42;75.73;101729.66;4994006;28;20038;-86
2022/05/18 03:51:11;;;;;;;10.87;7.00;;;;;;;16.44;75.17;101716.53;4976805;28;20121;-87
2022/05/18 03:53:37;;;;;;;12.88;7.03;;;;;;;16.47;75.02;101733.31;4975861;28;20049;-87
2022/05/18 03:56:03;;;;;;;11.38;7.00;;;;;;;16.52;75.01;101726.31;4978412;28;20038;-87
2022/05/18 03:58:29;;;;;;;11.75;6.22;;;;;;;16.59;75.01;101719.66;4980264;28;20042;-87
2022/05/18 04:01:00;;;;;;;10.43;6.97;;;;;;;16.58;74.69;101719.91;4997428;28;20038;-86
2022/05/18 04:03:26;;;;;;;15.25;7.22;;;;;;;16.65;74.24;101723.38;4980206;28;20038;-86
2022/05/18 04:06:05;;;;;;;15.23;7.20;;;;;;;16.69;74.32;101713.63;4979826;28;20026;-87
2022/05/18 04:08:32;;;;;;;7.53;5.90;;;;;;;16.76;73.49;101717.09;4980631;28;20030;-86
2022/05/18 04:11:01;;;;;;;9.67;5.93;;;;;;;16.83;73.27;101715.09;4997410;28;20026;-87
2022/05/18 04:13:36;;;;;;;10.82;6.07;;;;;;;16.91;72.98;101724.88;4997177;28;20029;-87
2022/05/18 04:16:04;;;;;;;12.15;6.40;;;;;;;17.02;72.61;101723.22;4965129;28;20117;-87
2022/05/18 04:18:30;;;;;;;13.40;6.03;;;;;;;17.10;71.85;101722.06;4979562;28;20112;-87
2022/05/18 04:20:58;;;;;;;9.73;6.03;;;;;;;17.20;71.22;101727.78;4979639;28;20022;-87
2022/05/18 04:23:24;;;;;;;12.75;6.22;;;;;;;17.30;71.00;101722.53;4979405;28;20169;-87
2022/05/18 04:26:03;;;;;;;9.48;5.78;;;;;;;17.41;70.19;101728.25;4979689;28;20037;-86
2022/05/18 04:28:36;;;;;;;8.68;5.20;;;;;;;17.49;69.67;101728.72;5010573;28;20061;-86
2022/05/18 04:31:02;;;;;;;10.47;5.30;;;;;;;17.54;70.14;101731.56;4998840;28;20030;-86
2022/05/18 04:33:30;;;;;;;10.00;5.25;;;;;;;17.58;69.68;101736.56;4998920;28;20452;-86
2022/05/18 04:36:03;;;;;;;8.57;5.18;;;;;;;17.62;69.66;101735.03;4999176;28;20416;-86
2022/05/18 04:38:29;;;;;;;12.30;5.28;;;;;;;17.64;69.28;101741.09;4999243;28;20037;-86
2022/05/18 04:40:59;;;;;;;10.00;5.75;;;;;;;17.62;69.01;101744.06;4999622;28;20469;-86
2022/05/18 04:43:24;;;;;;;7.37;5.03;;;;;;;17.65;69.26;101749.06;4999097;28;20057;-86
2022/05/18 04:45:55;;;;;;;9.43;5.00;;;;;;;17.71;68.51;101750.84;4999298;28;20447;-86
2022/05/18 04:48:22;;;;;;;8.10;4.78;;;;;;;17.79;68.44;101752.41;4999096;28;20141;-86
2022/05/18 04:50:48;;;;;;;10.20;5.33;;;;;;;17.88;68.40;101758.34;4982557;28;20044;-86
2022/05/18 04:53:17;;;;;;;13.05;5.40;;;;;;;17.96;67.84;101760.75;4998242;28;20045;-86
2022/05/18 04:55:51;;;;;;;10.98;5.15;;;;;;;18.04;67.43;101763.13;4998384;28;20038;-86
2022/05/18 04:58:17;;;;;;;9.13;4.68;;;;;;;18.08;67.26;101763.44;5016238;28;20026;-86
2022/05/18 05:00:49;;;;;;;9.83;5.27;;;;;;;18.09;67.26;101756.91;4999637;28;20115;-87
2022/05/18 05:03:16;;;;;;;10.30;4.63;;;;;;;18.16;67.21;101763.09;4998829;28;20061;-86
2022/05/18 05:05:46;;;;;;;10.50;4.55;;;;;;;18.23;67.24;101765.66;4998475;28;20038;-86
2022/05/18 05:08:19;;;;;;;7.47;5.05;;;;;;;18.35;66.86;101773.88;4997690;28;20040;-86
2022/05/18 05:10:50;;;;;;;10.17;4.87;;;;;;;18.36;66.70;101767.31;5015903;28;20453;-86
2022/05/18 05:13:16;;;;;;;8.57;4.60;;;;;;;18.48;66.16;101775.50;5016499;28;20057;-86
2022/05/18 05:15:51;;;;;;;7.33;4.60;;;;;;;18.58;66.29;101773.75;5014604;28;20026;-86
2022/05/18 05:18:16;;;;;;;10.60;5.17;;;;;;;18.71;65.57;101775.38;4999843;28;20316;-83
2022/05/18 05:20:42;;;;;;;9.90;4.72;;;;;;;18.85;65.15;101784.16;5015400;28;20486;-84
2022/05/18 05:23:10;;;;;;;8.23;4.40;;;;;;;18.97;65.27;101784.09;4998062;28;20125;-84
2022/05/18 05:25:35;;;;;;;8.65;4.93;;;;;;;19.03;64.39;101776.75;4981745;28;20026;-84
2022/05/18 05:28:01;;;;;;;9.17;4.70;;;;;;;19.08;64.92;101782.34;5015130;28;20053;-84
2022/05/18 05:30:27;;;;;;;8.87;4.80;;;;;;;19.09;64.47;101778.53;4997848;28;20501;-83
2022/05/18 05:32:52;;;;;;;8.48;4.35;;;;;;;19.15;64.89;101779.41;4997282;28;20100;-84
2022/05/18 05:35:21;;;;;;;9.13;4.50;;;;;;;19.24;64.69;101770.50;5015187;28;20418;-84
2022/05/18 05:37:47;;;;;;;8.13;4.37;;;;;;;19.35;64.15;101787.16;4982401;28;20108;-83
2022/05/18 05:40:12;;;;;;;10.02;4.53;;;;;;;19.46;63.49;101791.75;4997708;28;20470;-84
2022/05/18 05:42:40;;;;;;;7.60;4.67;;;;;;;19.52;62.99;101792.66;4998540;28;20026;-84
2022/05/18 05:45:06;;;;;;;13.05;5.03;;;;;;;19.64;63.12;101799.72;4982518;28;20128;-83
2022/05/18 05:47:31;;;;;;;6.85;4.40;;;;;;;19.83;62.70;101790.34;4997244;28;20061;-83
2022/05/18 05:49:57;;;;;;;13.93;5.10;;;;;;;20.01;62.23;101801.06;4997694;28;20104;-83
2022/05/18 05:52:24;;;;;;;7.77;4.40;;;;;;;20.10;61.60;101804.22;4982111;28;20378;-83
2022/05/18 05:54:50;;;;;;;10.13;4.28;;;;;;;20.22;61.42;101813.16;5015124;28;20505;-84
2022/05/18 05:57:15;;;;;;;10.57;4.60;;;;;;;20.35;61.32;101820.22;4997098;28;20124;-84
2022/05/18 05:59:41;;;;;;;6.13;3.97;;;;;;;20.41;60.63;101819.19;5014723;28;20474;-83
2022/05/18 06:02:12;;;;;;;9.40;4.27;;;;;;;20.52;60.64;101817.38;4997355;28;20056;-83
2022/05/18 06:04:55;;;;;;;6.45;4.15;;;;;;;20.66;60.06;101812.31;4980831;28;20038;-85
2022/05/18 06:07:23;;;;;;;8.57;4.30;;;;;;;20.71;58.60;101815.13;4967612;28;20476;-85
2022/05/18 06:09:49;;;;;;;9.47;4.27;;;;;;;20.73;58.31;101812.94;5014920;28;20087;-83
2022/05/18 06:12:14;;;;;;;8.90;4.35;;;;;;;20.76;58.58;101809.66;5014291;28;20022;-83
2022/05/18 06:14:44;;;;;;;16.40;5.00;;;;;;;20.81;58.79;101817.97;4980915;28;20489;-83
2022/05/18 06:17:15;;;;;;;16.17;4.68;;;;;;;20.83;58.84;101824.06;4996749;28;20036;-84
2022/05/18 06:19:40;;;;;;;14.50;4.70;;;;;;;20.89;58.67;101830.47;4995674;28;20037;-83
2022/05/18 06:22:06;;;;;;;14.07;4.37;;;;;;;20.91;58.27;101838.50;4980242;28;20030;-83
2022/05/18 06:24:32;;;;;;;14.47;4.57;;;;;;;20.92;58.18;101837.38;5014219;28;20038;-83
2022/05/18 06:27:20;;;;;;;13.73;4.50;;;;;;;20.97;57.84;101840.19;5014281;28;20746;-84
2022/05/18 06:29:48;;;;;;;18.05;5.00;;;;;;;20.96;57.54;101846.81;4986594;28;20030;-83
2022/05/18 06:32:16;;;;;;;12.65;4.63;;;;;;;20.98;57.64;101841.88;4997316;28;20446;-84
2022/05/18 06:34:44;;;;;;;13.83;4.93;;;;;;;21.00;57.63;101839.69;4996376;28;20049;-85
2022/05/18 06:37:10;;;;;;;10.95;4.80;;;;;;;20.98;57.72;101834.41;4996357;28;20026;-85
2022/05/18 06:39:39;;;;;;;12.07;4.30;;;;;;;20.97;57.37;101843.78;5013891;28;20041;-84
2022/05/18 06:42:05;;;;;;;15.75;5.15;;;;;;;20.99;57.08;101838.84;4996181;28;20548;-84
2022/05/18 06:44:33;;;;;;;13.80;4.70;;;;;;;21.06;56.85;101857.13;5013770;28;20057;-84
2022/05/18 06:47:56;;;;;;;12.15;4.75;;;;;;;21.10;57.04;101861.84;4979801;28;20433;-84
2022/05/18 06:53:19;;;;;;;14.60;5.32;;;;;;;21.18;55.49;101855.00;4933747;29;20460;-82
2022/05/18 06:55:47;;;;;;;15.57;5.27;;;;;;;21.11;56.08;101854.38;4988008;28;20128;-83
2022/05/18 06:58:12;;;;;;;17.27;5.82;;;;;;;21.15;56.12;101853.59;4996258;28;20018;-84
2022/05/18 07:00:38;;;;;;;14.70;5.80;;;;;;;21.16;56.37;101869.06;4996262;28;20034;-84
2022/05/18 07:03:10;;;;;;;21.77;5.70;;;;;;;21.16;56.69;101869.06;4995470;28;20045;-84
2022/05/18 07:05:36;;;;;;;16.97;6.47;;;;;;;21.27;56.63;101880.19;5013465;28;20473;-84
2022/05/18 07:08:03;;;;;;;13.73;6.70;;;;;;;21.36;56.51;101882.22;4995904;28;20176;-84
2022/05/18 07:10:31;;;;;;;17.87;7.63;;;;;;;21.48;56.43;101884.81;5013911;28;20458;-84
2022/05/18 07:12:56;;;;;;;16.25;6.68;;;;;;;21.52;56.37;101891.47;4980031;28;20053;-84
2022/05/18 07:15:25;;;;;;;12.38;7.57;;;;;;;21.57;56.82;101881.56;4996259;28;20026;-84
2022/05/18 07:17:53;;;;;;;13.85;8.55;;;;;;;21.64;56.78;101884.94;4996277;28;20029;-83
2022/05/18 07:20:19;;;;;;;15.10;8.60;;;;;;;21.66;57.01;101874.47;4995765;28;20034;-84
2022/05/18 07:22:45;;;;;;;13.98;8.00;;;;;;;21.81;57.31;101885.63;4980026;28;20390;-84
2022/05/18 07:25:11;;;;;;;12.93;8.50;;;;;;;21.78;57.39;101885.31;5013777;28;20049;-84
2022/05/18 07:27:36;;;;;;;11.77;8.20;;;;;;;21.79;57.52;101896.09;4989730;28;20190;-84
2022/05/18 07:30:04;;;;;;;10.03;7.73;;;;;;;21.78;57.58;101902.72;4961669;28;20035;-84
2022/05/18 07:32:30;;;;;;;18.38;8.40;;;;;;;21.68;58.33;101899.88;4980730;28;20129;-84
2022/05/18 07:34:56;;;;;;;12.20;8.15;;;;;;;21.61;58.42;101904.81;4980559;28;20030;-84
2022/05/18 07:37:22;;;;;;;11.27;8.27;;;;;;;21.46;59.14;101902.72;4964468;28;20031;-84
2022/05/18 07:39:47;;;;;;;16.38;8.52;;;;;;;21.55;59.16;101881.84;4980163;28;20125;-84
2022/05/18 07:42:13;;;;;;;12.93;8.05;;;;;;;21.67;59.21;101881.66;4980594;28;20117;-83
2022/05/18 07:44:39;;;;;;;16.63;8.50;;;;;;;21.73;58.83;101889.72;4980534;28;20045;-83
2022/05/18 07:47:09;;;;;;;13.38;7.60;;;;;;;21.80;58.81;101896.94;4980046;28;20026;-83
2022/05/18 07:49:42;;;;;;;20.77;8.75;;;;;;;21.85;58.83;101902.47;4997555;28;20026;-84
2022/05/18 07:52:10;;;;;;;16.23;7.93;;;;;;;21.98;57.99;101896.50;4979845;28;20081;-83
2022/05/18 07:54:37;;;;;;;13.75;8.05;;;;;;;22.06;58.35;101897.94;4979851;28;20033;-83
2022/05/18 07:57:08;;;;;;;16.87;8.80;;;;;;;22.19;57.89;101896.59;4980043;28;20397;-83
2022/05/18 07:59:36;;;;;;;12.55;7.78;;;;;;;22.26;57.77;101905.47;4980281;28;20042;-84
2022/05/18 08:02:04;;;;;;;13.38;8.07;;;;;;;22.37;58.24;101911.94;4997663;28;20485;-84
2022/05/18 08:04:30;;;;;;;11.50;7.72;;;;;;;22.56;57.76;101917.84;4980000;28;20034;-84
2022/05/18 08:06:55;;;;;;;14.43;8.57;;;;;;;22.54;57.74;101912.56;4964211;28;20378;-84
2022/05/18 08:09:24;;;;;;;13.90;8.50;;;;;;;22.40;58.06;101923.28;4964733;28;20489;-84
2022/05/18 08:17:24;;;;;;;14.75;8.80;;;;;;;22.01;59.75;101903.41;4997448;28;20077;-84
2022/05/18 08:19:58;;;;;;;14.10;8.87;;;;;;;21.98;59.68;101904.81;4979525;28;20054;-84
2022/05/18 08:22:27;;;;;;;15.20;9.35;;;;;;;22.04;59.63;101912.00;4980610;28;20022;-84
2022/05/18 08:24:53;;;;;;;12.15;9.18;;;;;;;22.17;59.48;101915.38;4979773;28;20030;-85
2022/05/18 08:27:20;;;;;;;15.00;9.53;;;;;;;22.25;60.15;101915.72;4963178;28;20414;-84
2022/05/18 08:29:48;;;;;;;14.55;8.93;;;;;;;22.28;59.90;101907.97;4963341;28;20058;-84
2022/05/18 08:32:14;;;;;;;17.65;10.15;;;;;;;22.27;59.72;101923.75;4963664;28;20030;-84
2022/05/18 08:34:39;;;;;;;16.67;8.73;;;;;;;22.45;60.40;101916.13;4979438;28;20386;-84
2022/05/18 08:37:04;;;;;;;15.00;9.40;;;;;;;22.50;58.91;101914.22;4963138;28;20398;-83
2022/05/18 08:39:32;;;;;;;16.20;8.30;;;;;;;22.67;58.67;101918.69;4963286;28;20041;-84
2022/05/18 08:42:00;;;;;;;13.27;7.90;;;;;;;22.83;59.46;101922.34;4995833;28;20750;-84
2022/05/18 08:44:32;;;;;;;18.42;8.60;;;;;;;22.92;58.03;101929.00;4964489;28;20477;-83
2022/05/18 08:47:29;;;;;;;11.82;8.27;;;;;;;22.99;57.49;101929.56;4996489;28;20031;-84
2022/05/18 08:50:03;;;;;;;11.75;7.20;;;;;;;23.09;57.68;101932.38;4996823;28;20506;-84
2022/05/18 08:53:02;;;;;;;15.50;8.27;;;;;;;23.11;56.97;101930.19;4979133;28;20030;-84
2022/05/18 08:55:51;;;;;;;14.03;7.97;;;;;;;23.01;56.78;101929.31;4996494;28;20027;-84
2022/05/18 08:58:40;;;;;;;11.02;7.88;;;;;;;23.00;57.65;101930.41;4979663;28;20423;-84
2022/05/18 09:01:35;;;;;;;14.40;8.70;;;;;;;23.05;56.98;101934.00;4997138;28;20031;-84
2022/05/18 09:04:26;;;;;;;16.05;9.10;;;;;;;23.06;56.88;101919.06;4996499;28;20030;-84
2022/05/18 09:06:59;;;;;;;13.70;8.73;;;;;;;23.12;57.51;101922.72;4971712;28;20039;-83
2022/05/18 09:12:39;;;;;;;10.43;7.55;;;;;;;23.37;55.56;101930.22;4996063;28;20133;-84
2022/05/18 09:15:10;;;;;;;12.98;8.45;;;;;;;23.43;55.56;101920.81;4963034;28;20030;-84
2022/05/18 09:17:36;;;;;;;11.63;6.63;;;;;;;23.54;54.50;101929.13;4979530;28;20088;-84
2022/05/18 09:20:15;;;;;;;8.63;6.33;;;;;;;23.61;54.76;101926.91;4978461;28;20120;-84
2022/05/18 09:23:11;;;;;;;8.30;6.57;;;;;;;23.63;54.79;101932.97;4978951;28;20387;-84
2022/05/18 09:25:53;;;;;;;8.45;5.57;;;;;;;23.64;53.18;101931.88;4979112;28;20378;-84
2022/05/18 09:28:59;;;;;;;4.83;3.70;;;;;;;23.75;53.39;101929.94;4978384;28;20433;-85
2022/05/18 09:32:09;;;;;;;12.02;5.53;;;;;;;23.94;52.98;101925.50;4978152;28;20030;-84
2022/05/18 09:34:39;;;;;;;8.68;4.95;;;;;;;24.29;51.67;101929.28;4996115;28;20053;-84
2022/05/18 09:37:27;;;;;;;8.25;4.55;;;;;;;24.73;51.21;101926.91;4979252;28;20363;-85
2022/05/18 09:40:08;;;;;;;7.68;4.80;;;;;;;25.06;49.44;101928.13;4995669;28;20070;-84
2022/05/18 09:42:40;;;;;;;8.40;4.43;;;;;;;25.38;49.32;101935.97;4995841;28;20037;-85
2022/05/18 09:45:10;;;;;;;7.63;4.57;;;;;;;25.56;48.25;101925.28;4996037;28;20470;-84
2022/05/18 09:47:49;;;;;;;9.88;4.35;;;;;;;25.77;47.33;101913.97;4978031;28;20037;-85
2022/05/18 09:50:14;;;;;;;7.45;4.35;;;;;;;25.90;46.97;101919.66;4978608;28;20351;-84
2022/05/18 09:52:44;;;;;;;9.67;4.80;;;;;;;25.73;46.94;101925.69;4994599;28;20118;-85
2022/05/18 09:55:14;;;;;;;6.63;3.75;;;;;;;25.85;47.91;101922.50;4995263;28;20033;-84
2022/05/18 09:58:25;;;;;;;3.95;3.10;;;;;;;25.97;48.09;101922.13;4995709;28;20023;-84
2022/05/18 10:07:27;;;;;;;6.40;3.20;;;;;;;25.78;46.38;101923.94;4971706;28;20490;-85
2022/05/18 10:09:52;;;;;;;3.95;2.22;;;;;;;25.48;46.26;101932.31;4995230;28;20045;-84
2022/05/18 10:12:26;;;;;;;5.10;2.40;;;;;;;25.64;45.90;101932.97;4945443;28;20386;-84
2022/05/18 10:14:59;;;;;;;4.90;2.50;;;;;;;25.89;45.97;101931.06;4978063;28;20038;-85
2022/05/18 10:17:32;;;;;;;6.40;2.50;;;;;;;26.01;45.13;101925.97;4995110;28;20394;-84
2022/05/18 10:20:32;;;;;;;7.85;2.88;;;;;;;26.08;44.90;101925.63;4994751;28;20030;-83
2022/05/18 10:23:00;;;;;;;5.60;2.75;;;;;;;25.90;45.59;101918.84;4974784;28;20073;-82
2022/05/18 10:25:28;;;;;;;5.75;3.08;;;;;;;25.98;45.58;101929.31;4977859;28;20034;-83
2022/05/18 10:27:57;;;;;;;4.32;2.92;;;;;;;26.08;45.22;101923.66;4977090;28;20061;-83
2022/05/18 10:30:28;;;;;;;4.93;2.50;;;;;;;26.38;44.55;101924.47;4994581;28;20031;-83
2022/05/18 10:32:57;;;;;;;5.25;3.03;;;;;;;26.67;43.83;101931.06;4976872;28;20034;-83
2022/05/18 10:35:37;;;;;;;4.82;3.30;;;;;;;26.79;43.76;101923.94;4977811;28;20034;-83
2022/05/18 10:38:16;;;;;;;5.10;3.28;;;;;;;27.04;43.73;101916.34;4977035;28;20242;-83
2022/05/18 10:40:55;;;;;;;10.10;3.75;;;;;;;27.16;43.05;101920.63;4976969;28;20032;-82
2022/05/18 10:43:29;;;;;;;8.83;3.40;;;;;;;27.07;43.74;101917.69;4994999;28;20030;-83
2022/05/18 10:46:10;;;;;;;6.50;3.33;;;;;;;27.33;42.78;101918.16;4977912;28;20022;-83
2022/05/18 10:48:36;;;;;;;6.47;3.90;;;;;;;27.34;42.35;101911.44;4977208;28;20038;-83
2022/05/18 10:51:08;;;;;;;4.70;3.40;;;;;;;27.52;42.20;101906.97;4976516;28;20390;-83
2022/05/18 10:53:40;;;;;;;6.53;4.17;;;;;;;27.76;42.43;101903.22;4994917;28;20122;-83
2022/05/18 10:56:13;;;;;;;6.85;4.18;;;;;;;28.05;41.01;101905.75;4994367;28;20054;-83
2022/05/18 10:58:41;;;;;;;9.02;3.88;;;;;;;28.53;40.21;101907.28;4976554;28;20088;-83
2022/05/18 11:01:13;;;;;;;9.50;3.85;;;;;;;28.40;40.60;101903.34;4976890;28;20034;-83
2022/05/18 11:04:05;;;;;;;6.38;3.42;;;;;;;28.62;40.66;101902.63;4994025;28;20034;-83
2022/05/18 11:06:37;;;;;;;9.37;3.70;;;;;;;28.91;39.09;101906.16;4976779;28;20038;-83
2022/05/18 11:09:29;;;;;;;8.65;4.03;;;;;;;28.85;39.60;101891.53;4976677;28;20030;-83
2022/05/18 11:12:17;;;;;;;6.82;3.80;;;;;;;28.95;38.71;101899.66;4969027;28;20102;-82
2022/05/18 11:14:55;;;;;;;7.53;4.20;;;;;;;29.86;37.35;101897.66;4977061;28;20069;-82
2022/05/18 11:17:30;;;;;;;6.93;4.50;;;;;;;31.15;35.64;101893.84;4994181;28;20034;-83
2022/05/18 11:20:13;;;;;;;6.33;4.40;;;;;;;33.65;31.81;101899.88;4977375;28;20049;-83
2022/05/18 11:22:47;;;;;;;8.93;4.18;;;;;;;35.78;28.41;101898.69;4977285;28;20034;-82
2022/05/18 11:25:29;;;;;;;9.27;4.70;;;;;;;37.13;27.19;101901.41;4994056;28;20027;-83
2022/05/18 11:28:14;;;;;;;7.78;3.80;;;;;;;38.52;25.32;101896.53;5003061;28;20053;-83
2022/05/18 11:31:02;;;;;;;6.55;4.47;;;;;;;39.96;23.88;101883.94;5013537;28;20030;-83
2022/05/18 11:33:42;;;;;;;5.57;4.10;;;;;;;41.92;20.55;101880.63;4995693;28;20026;-83
2022/05/18 11:36:47;;;;;;;7.78;4.25;;;;;;;43.52;20.98;101868.13;4996282;28;20120;-83
2022/05/18 11:39:38;;;;;;;7.47;3.83;;;;;;;42.85;19.22;101856.72;5013707;28;20033;-83
2022/05/18 11:42:11;;;;;;;6.65;3.80;;;;;;;42.48;19.04;101865.81;4960880;28;20477;-83
2022/05/18 11:45:04;;;;;;;6.97;4.10;;;;;;;41.03;21.08;101863.00;4995650;28;20121;-83
2022/05/18 11:48:10;;;;;;;9.60;4.17;;;;;;;42.11;21.29;101859.41;4996199;28;20033;-83
2022/05/18 11:50:54;;;;;;;6.50;4.07;;;;;;;43.84;19.66;101855.63;4985860;28;20041;-83
2022/05/18 11:53:30;;;;;;;5.03;3.92;;;;;;;43.07;18.08;101850.91;4995905;28;20038;-83
2022/05/18 11:56:07;;;;;;;5.13;4.30;;;;;;;40.70;20.50;101861.25;4996194;28;20025;-83
2022/05/18 11:58:49;;;;;;;8.05;4.30;;;;;;;40.53;20.63;101859.97;5013647;28;20148;-83
2022/05/18 12:01:40;;;;;;;8.20;3.83;;;;;;;40.92;21.84;101867.06;4996365;28;20389;-83